Time;durP1;ratioP1;P1;durP2;ratioP2;P2;SDS_P1;SDS_P2;PMS_P1;PMS_P2;Temp;Humidity;BMP_temperature;BMP_pressure;BME280_temperature;BME280_humidity;BME280_pressure;Samples;Min_cycle;Max_cycle;Signal;HPM_P1;HPM_P2
2022/06/18 00:01:52;;;;;;;23.73;7.72;;;;;;;17.30;92.08;100231.94;10498129;28;20130;-74
2022/06/18 00:07:05;;;;;;;21.00;6.68;;;;;;;17.36;92.50;100253.63;10498524;28;20130;-74
2022/06/18 00:17:33;;;;;;;10.23;6.28;;;;;;;17.13;91.52;100217.38;10498002;28;20137;-74
2022/06/18 00:22:34;;;;;;;11.05;7.15;;;;;;;17.16;91.19;100237.59;10497550;28;20194;-74
2022/06/18 00:27:35;;;;;;;10.63;6.15;;;;;;;16.49;91.27;100153.84;10479318;28;20062;-74
2022/06/18 00:32:36;;;;;;;10.00;6.60;;;;;;;17.02;91.40;100250.25;10496645;28;20526;-74
2022/06/18 00:37:37;;;;;;;11.65;7.28;;;;;;;16.92;92.16;100236.47;10496587;28;20113;-74
2022/06/18 00:42:39;;;;;;;15.63;7.85;;;;;;;15.97;92.36;100095.66;10496145;28;20041;-74
2022/06/18 00:47:55;;;;;;;11.93;6.80;;;;;;;16.82;94.09;100267.25;10496056;28;20527;-73
2022/06/18 00:53:05;;;;;;;23.42;7.97;;;;;;;16.26;94.13;100173.91;10496610;28;20557;-74
2022/06/18 00:58:21;;;;;;;26.50;7.75;;;;;;;16.44;93.26;100200.06;10479076;28;20538;-74
2022/06/18 01:03:35;;;;;;;28.10;8.63;;;;;;;15.80;92.89;100121.22;10495829;28;20036;-74
2022/06/18 01:08:39;;;;;;;24.95;7.50;;;;;;;16.44;93.24;100237.59;10496219;28;20127;-74
2022/06/18 01:13:41;;;;;;;16.58;6.57;;;;;;;16.62;92.92;100264.56;10495702;28;20057;-74
2022/06/18 01:18:42;;;;;;;30.02;7.45;;;;;;;16.45;93.26;100223.13;10495832;28;20377;-74
2022/06/18 01:23:50;;;;;;;21.17;6.85;;;;;;;16.77;94.96;100263.53;10495275;28;20047;-74
2022/06/18 01:28:51;;;;;;;11.65;6.85;;;;;;;16.82;93.69;100261.88;10495830;28;20401;-73
2022/06/18 01:33:52;;;;;;;13.80;6.85;;;;;;;16.11;93.76;100141.16;10495811;28;20041;-73
2022/06/18 01:38:53;;;;;;;39.00;8.65;;;;;;;16.85;94.37;100261.44;10504328;28;20496;-73
2022/06/18 01:43:58;;;;;;;14.15;7.45;;;;;;;17.05;95.93;100282.88;10503015;28;20041;-74
2022/06/18 01:49:01;;;;;;;12.73;7.70;;;;;;;16.75;95.70;100211.91;10503269;28;20036;-74
2022/06/18 01:54:11;;;;;;;18.05;7.05;;;;;;;17.08;96.38;100235.97;10485459;28;20045;-74
2022/06/18 01:59:35;;;;;;;13.18;7.10;;;;;;;17.47;97.66;100280.63;10503744;28;20048;-73
2022/06/18 02:04:37;;;;;;;;;;;;;;;17.62;94.06;100285.69;10502710;28;20040;-73
2022/06/18 02:10:00;;;;;;;19.00;7.28;;;;;;;17.62;97.27;100284.84;10503258;28;19956;-73
2022/06/18 02:15:21;;;;;;;11.98;7.78;;;;;;;17.73;98.18;100301.13;10501598;28;20064;-73
2022/06/18 02:20:27;;;;;;;16.95;9.27;;;;;;;17.81;96.32;100296.56;10501779;28;20040;-73
2022/06/18 02:25:30;;;;;;;14.73;8.25;;;;;;;17.95;95.71;100290.88;10502284;28;20028;-74
2022/06/18 02:30:36;;;;;;;10.55;6.95;;;;;;;17.80;96.09;100252.75;10501313;28;20523;-74
2022/06/18 02:35:37;;;;;;;7.82;6.88;;;;;;;17.50;95.40;100188.88;10482244;28;20047;-75
2022/06/18 02:40:37;;;;;;;9.85;7.07;;;;;;;17.31;95.14;100136.94;10474577;28;20106;-74
2022/06/18 02:45:39;;;;;;;9.68;6.97;;;;;;;17.08;94.41;100083.00;10500561;28;20442;-74
2022/06/18 02:50:42;;;;;;;12.68;7.32;;;;;;;18.28;94.37;100254.84;10501368;28;20043;-74
2022/06/18 02:55:47;;;;;;;15.70;7.57;;;;;;;17.91;93.13;100141.03;10468629;28;20072;-74
2022/06/18 03:00:53;;;;;;;15.82;8.30;;;;;;;18.57;91.71;100177.16;10459845;28;20503;-74
2022/06/18 03:05:54;;;;;;;13.60;8.70;;;;;;;18.90;87.79;100043.03;10458401;28;20053;-74
2022/06/18 03:16:18;;;;;;;9.25;7.65;;;;;;;22.14;77.76;100156.41;10458168;28;20052;-73
2022/06/18 03:21:37;;;;;;;15.75;7.82;;;;;;;22.83;77.42;100229.94;10458658;28;20045;-73
2022/06/18 03:26:38;;;;;;;12.07;7.53;;;;;;;21.83;78.23;100153.28;10457640;28;20560;-74
2022/06/18 03:31:38;;;;;;;10.15;7.78;;;;;;;22.15;79.00;100269.00;10458440;28;20033;-74
2022/06/18 03:36:39;;;;;;;14.07;7.70;;;;;;;21.73;80.29;100242.34;10455974;28;20463;-73
2022/06/18 03:41:40;;;;;;;12.85;8.32;;;;;;;21.60;80.66;100265.09;10456877;28;20036;-74
2022/06/18 03:46:43;;;;;;;11.77;8.10;;;;;;;21.57;80.73;100265.59;10456766;28;20047;-73
2022/06/18 03:51:44;;;;;;;13.57;9.07;;;;;;;21.68;80.46;100259.28;10457969;28;20041;-74
2022/06/18 03:56:44;;;;;;;13.43;8.88;;;;;;;21.72;80.86;100271.25;10456955;28;20060;-74
2022/06/18 04:01:45;;;;;;;17.17;12.05;;;;;;;21.54;81.28;100242.56;10455370;28;20090;-75
2022/06/18 04:06:46;;;;;;;17.95;12.85;;;;;;;21.00;80.49;100152.06;10484964;28;20044;-74
2022/06/18 04:11:47;;;;;;;14.70;13.18;;;;;;;19.42;80.47;99877.31;10496189;28;20102;-74
2022/06/18 04:16:48;;;;;;;18.80;13.30;;;;;;;22.29;79.70;100264.94;10496906;28;20047;-72
2022/06/18 04:21:48;;;;;;;16.67;11.77;;;;;;;22.04;79.70;100266.09;10497285;28;20411;-73
2022/06/18 04:26:49;;;;;;;14.63;11.48;;;;;;;22.29;79.89;100276.56;10496889;28;20043;-72
2022/06/18 04:31:51;;;;;;;15.45;11.07;;;;;;;22.22;78.83;100242.63;10496339;28;20120;-73
2022/06/18 04:36:52;;;;;;;15.45;10.88;;;;;;;22.00;77.50;100164.09;10497405;28;20476;-72
2022/06/18 04:41:52;;;;;;;11.07;9.35;;;;;;;23.58;74.59;100271.75;10479285;28;20048;-72
2022/06/18 04:46:53;;;;;;;14.82;9.63;;;;;;;23.77;73.37;100274.94;10466073;28;20459;-72
2022/06/18 04:51:54;;;;;;;16.70;10.63;;;;;;;24.71;70.00;100281.66;10458984;28;20103;-73
2022/06/18 04:56:55;;;;;;;15.23;10.73;;;;;;;25.58;67.51;100256.72;10455155;28;20123;-72
2022/06/18 05:02:22;;;;;;;48.20;10.38;;;;;;;27.00;63.87;100271.28;10454377;28;20056;-72
2022/06/18 05:07:23;;;;;;;18.40;10.05;;;;;;;27.51;61.60;100260.94;10453422;28;20061;-71
2022/06/18 05:12:24;;;;;;;10.82;8.82;;;;;;;27.49;59.73;100240.50;10453971;28;20048;-72
2022/06/18 05:17:29;;;;;;;7.18;5.60;;;;;;;27.88;56.09;100253.34;10454984;28;20055;-72
2022/06/18 05:22:30;;;;;;;9.02;4.65;;;;;;;28.27;55.83;100256.03;10454267;28;20037;-72
2022/06/18 05:27:34;;;;;;;9.77;5.05;;;;;;;28.37;53.23;100253.16;10453863;28;20037;-72
2022/06/18 05:32:34;;;;;;;7.90;5.47;;;;;;;28.50;53.95;100251.69;10453981;28;20431;-70
2022/06/18 05:37:37;;;;;;;7.32;4.63;;;;;;;28.62;52.31;100257.56;10453311;28;20041;-71
2022/06/18 05:42:38;;;;;;;12.40;5.30;;;;;;;28.37;51.21;100241.44;10453094;28;20064;-71
2022/06/18 05:47:39;;;;;;;10.73;4.40;;;;;;;28.47;50.27;100238.63;10453457;28;20283;-68
2022/06/18 05:52:40;;;;;;;8.10;2.92;;;;;;;28.68;49.12;100240.00;10451944;28;20044;-74
2022/06/18 05:57:48;;;;;;;7.95;3.15;;;;;;;28.91;48.19;100237.56;10486419;28;20047;-71
2022/06/18 06:02:49;;;;;;;5.03;2.85;;;;;;;28.49;47.53;100208.28;10491988;28;20037;-68
2022/06/18 06:07:50;;;;;;;11.35;3.28;;;;;;;28.93;48.30;100224.41;10493244;28;20052;-66
2022/06/18 06:12:52;;;;;;;10.77;3.38;;;;;;;28.63;48.37;100127.22;10490547;28;20674;-70
2022/06/18 06:17:53;;;;;;;10.32;3.40;;;;;;;29.33;47.51;100222.25;10495030;28;20445;-66
2022/06/18 06:22:54;;;;;;;7.63;3.10;;;;;;;29.44;46.02;100218.25;10497440;28;20040;-66
2022/06/18 06:27:55;;;;;;;5.97;2.20;;;;;;;28.82;43.83;100088.97;10501981;28;20885;-66
2022/06/18 06:32:56;;;;;;;18.85;3.28;;;;;;;29.60;41.96;100216.09;10501954;28;20125;-71
2022/06/18 06:37:56;;;;;;;13.07;2.45;;;;;;;29.64;41.87;100211.66;10482090;28;20041;-69
2022/06/18 06:42:58;;;;;;;473.55;38.22;;;;;;;29.76;41.69;100216.69;10496763;28;20052;-67
2022/06/18 06:47:59;;;;;;;4.97;2.20;;;;;;;29.83;40.80;100219.84;10501839;28;20038;-69
2022/06/18 06:53:00;;;;;;;23.60;2.90;;;;;;;29.70;39.04;100202.25;10501055;28;20115;-67
2022/06/18 06:58:01;;;;;;;7.85;1.80;;;;;;;29.99;38.02;100220.41;10501125;28;20044;-68
2022/06/18 07:03:01;;;;;;;4.05;1.65;;;;;;;29.98;37.91;100178.50;10500995;28;20045;-68
2022/06/18 07:08:03;;;;;;;4.65;1.75;;;;;;;30.21;36.97;100200.56;10500575;28;20052;-67
2022/06/18 07:13:04;;;;;;;7.38;1.92;;;;;;;30.01;37.54;100218.19;10499868;28;20060;-67
2022/06/18 07:18:15;;;;;;;4.93;1.70;;;;;;;29.95;38.08;100190.06;10499379;28;20044;-68
2022/06/18 07:23:17;;;;;;;5.50;1.90;;;;;;;29.85;38.07;100220.34;10500565;28;20052;-68
2022/06/18 07:28:18;;;;;;;4.65;1.92;;;;;;;29.63;38.50;100209.25;10498867;28;20050;-67
2022/06/18 07:33:21;;;;;;;5.55;1.95;;;;;;;30.02;37.73;100200.63;10480542;28;20040;-68
2022/06/18 07:38:22;;;;;;;14.65;2.63;;;;;;;29.72;38.44;100212.91;10481013;28;20047;-67
2022/06/18 07:43:36;;;;;;;2.92;1.90;;;;;;;30.18;38.36;100201.16;10498351;28;20036;-74
2022/06/18 07:48:39;;;;;;;3.00;1.88;;;;;;;30.43;37.19;100210.88;10498546;28;20411;-70
2022/06/18 07:53:40;;;;;;;17.08;2.47;;;;;;;30.69;36.97;100197.44;10499014;28;20052;-71
2022/06/18 07:58:42;;;;;;;7.00;2.00;;;;;;;30.56;36.68;100192.78;10497792;28;20048;-75
2022/06/18 08:03:43;;;;;;;7.85;1.85;;;;;;;30.64;36.48;100186.59;10498254;28;20051;-68
2022/06/18 08:08:43;;;;;;;9.38;2.00;;;;;;;31.16;37.17;100179.69;10497320;28;20424;-67
2022/06/18 08:13:45;;;;;;;4.22;1.95;;;;;;;30.87;36.72;100097.81;10480554;28;20052;-67
2022/06/18 08:18:46;;;;;;;6.97;1.90;;;;;;;31.21;35.91;100181.53;10496938;28;20094;-67
2022/06/18 08:23:49;;;;;;;3.13;1.55;;;;;;;31.54;34.98;100198.59;10496780;28;20059;-68
2022/06/18 08:28:50;;;;;;;9.65;2.00;;;;;;;31.23;34.61;100173.81;10497022;28;20047;-68
2022/06/18 08:33:51;;;;;;;15.10;2.20;;;;;;;31.29;34.56;100177.22;10496658;28;20095;-68
2022/06/18 08:38:53;;;;;;;3.85;1.85;;;;;;;31.26;34.12;100095.50;10496837;28;20043;-68
2022/06/18 08:44:09;;;;;;;4.95;1.80;;;;;;;31.44;33.60;100162.34;10495482;28;20037;-68
2022/06/18 08:49:35;;;;;;;7.05;1.77;;;;;;;31.00;34.20;100150.19;10496527;28;20110;-68
2022/06/18 08:54:55;;;;;;;6.40;1.67;;;;;;;30.61;34.47;100159.78;10496328;28;20036;-67
2022/06/18 09:00:38;;;;;;;6.38;1.90;;;;;;;30.43;34.71;100137.66;10495761;28;20118;-67
2022/06/18 09:06:05;;;;;;;5.95;1.88;;;;;;;30.11;34.55;100122.13;10456180;28;20048;-67
2022/06/18 09:11:38;;;;;;;4.47;1.55;;;;;;;30.66;33.11;100148.69;10496386;28;20135;-67
2022/06/18 09:17:00;;;;;;;9.55;1.92;;;;;;;30.65;32.81;100134.19;10457585;28;20052;-67
2022/06/18 09:22:03;;;;;;;6.38;2.00;;;;;;;29.82;34.86;100051.19;10477201;28;20093;-68
2022/06/18 09:27:21;;;;;;;19.48;1.77;;;;;;;30.71;32.38;100130.22;10495248;28;20041;-67
2022/06/18 09:32:28;;;;;;;6.35;1.85;;;;;;;31.13;33.39;100116.41;10494994;28;20045;-68
2022/06/18 09:37:39;;;;;;;5.65;2.13;;;;;;;31.69;31.94;100117.78;10494994;28;20047;-68
2022/06/18 09:42:49;;;;;;;3.97;1.70;;;;;;;31.75;30.49;100124.75;10477578;28;20044;-67
2022/06/18 09:47:52;;;;;;;5.78;1.65;;;;;;;31.23;31.67;100118.09;10477356;28;20029;-69
2022/06/18 09:53:06;;;;;;;11.35;2.10;;;;;;;31.51;31.00;100094.09;10493565;28;20441;-71
2022/06/18 09:58:16;;;;;;;5.93;1.75;;;;;;;31.56;29.11;100059.09;10496629;28;20041;-71
2022/06/18 10:08:53;;;;;;;2.78;1.52;;;;;;;30.67;30.35;100013.25;10502187;28;20061;-70
2022/06/18 10:14:12;;;;;;;3.87;1.60;;;;;;;31.13;30.76;99990.19;10502573;28;20531;-73
2022/06/18 10:19:23;;;;;;;34.03;2.63;;;;;;;31.80;30.54;100017.50;10502894;28;20041;-71
2022/06/18 10:24:24;;;;;;;2.60;1.48;;;;;;;32.24;29.68;100081.66;10503078;28;20385;-72
2022/06/18 10:29:39;;;;;;;10.57;1.58;;;;;;;31.72;28.47;99992.75;10502150;28;20040;-71
2022/06/18 10:34:40;;;;;;;30.35;2.70;;;;;;;32.64;29.36;100078.06;10501668;28;20033;-70
2022/06/18 10:39:47;;;;;;;7.60;1.60;;;;;;;32.72;29.59;100075.28;10500916;28;20045;-70
2022/06/18 10:45:29;;;;;;;20.92;3.38;;;;;;;33.08;28.57;100081.63;10472642;28;20037;-71
2022/06/18 10:50:46;;;;;;;9.40;1.90;;;;;;;33.01;29.27;100056.56;10449672;28;20059;-71
2022/06/18 10:56:03;;;;;;;12.93;2.30;;;;;;;33.25;27.35;100064.28;10498061;28;20365;-74
2022/06/18 11:01:12;;;;;;;14.70;1.73;;;;;;;32.92;27.50;100054.56;10485420;28;20527;-74
2022/06/18 11:06:14;;;;;;;10.55;2.00;;;;;;;33.02;27.63;100050.72;10476831;28;20045;-75
2022/06/18 11:11:21;;;;;;;5.30;1.83;;;;;;;33.14;27.37;100042.59;10478716;28;20063;-77
2022/06/18 11:16:25;;;;;;;10.73;1.75;;;;;;;32.88;27.41;100039.06;10479882;28;20033;-75
2022/06/18 11:21:34;;;;;;;3.95;1.98;;;;;;;32.87;27.98;100009.91;10479986;28;20040;-76
2022/06/18 11:26:37;;;;;;;6.72;1.70;;;;;;;32.44;28.13;99917.25;10487838;28;20051;-74
2022/06/18 11:31:45;;;;;;;2.40;1.50;;;;;;;33.40;27.08;100031.53;10490730;28;20165;-74
2022/06/18 11:36:49;;;;;;;4.38;1.40;;;;;;;33.58;27.02;100012.22;10482710;28;20400;-73
2022/06/18 11:41:53;;;;;;;10.50;1.70;;;;;;;33.76;27.26;100010.19;10463268;28;20113;-74
2022/06/18 11:47:27;;;;;;;12.18;1.73;;;;;;;33.78;27.15;100022.50;10473966;28;20443;-74
2022/06/18 11:52:52;;;;;;;3.97;1.52;;;;;;;33.75;25.91;100033.38;10473814;28;20178;-74
2022/06/18 11:58:24;;;;;;;8.18;1.73;;;;;;;32.67;27.27;99932.44;10485873;28;20127;-72
2022/06/18 12:03:40;;;;;;;6.18;1.75;;;;;;;32.63;26.53;100019.47;10482461;28;20050;-72
2022/06/18 12:08:41;;;;;;;2.50;1.40;;;;;;;32.07;27.82;100034.91;10483471;28;20044;-72
2022/06/18 12:14:16;;;;;;;13.43;2.78;;;;;;;30.87;31.23;100010.06;10487204;28;20045;-74
2022/06/18 12:19:23;;;;;;;21.40;3.50;;;;;;;29.47;34.12;99990.53;10454311;28;20496;-72
2022/06/18 12:24:51;;;;;;;9.90;2.42;;;;;;;29.33;34.99;100038.94;10488916;28;20055;-70
2022/06/18 12:30:01;;;;;;;13.32;3.53;;;;;;;29.63;35.80;100042.25;10457650;28;20048;-73
2022/06/18 12:35:53;;;;;;;18.77;2.78;;;;;;;30.30;34.67;100045.31;10484123;28;20045;-71
2022/06/18 12:41:16;;;;;;;12.57;3.30;;;;;;;30.32;34.59;100051.31;10423901;28;20090;-72
2022/06/18 12:46:29;;;;;;;12.43;2.47;;;;;;;29.88;34.68;99976.03;10489026;28;20492;-73
2022/06/18 12:51:30;;;;;;;21.27;2.47;;;;;;;30.05;34.32;100054.84;10471515;28;20131;-73
2022/06/18 12:56:35;;;;;;;19.38;2.53;;;;;;;30.12;34.56;100048.97;10489891;28;20040;-73
2022/06/18 13:01:46;;;;;;;14.80;2.90;;;;;;;30.59;34.69;100053.16;10486851;28;20131;-71
2022/06/18 13:07:06;;;;;;;12.45;2.30;;;;;;;30.64;32.10;100057.75;10483624;28;20107;-74
2022/06/18 13:12:07;;;;;;;14.02;4.30;;;;;;;29.98;33.31;99956.66;10487182;28;20044;-73
2022/06/18 13:17:17;;;;;;;10.93;5.35;;;;;;;30.69;32.84;100049.38;10486329;28;20060;-74
2022/06/18 13:22:19;;;;;;;8.27;6.28;;;;;;;30.38;32.50;99995.25;10485991;28;20551;-74
2022/06/18 13:33:06;;;;;;;25.70;4.82;;;;;;;30.47;31.49;100009.03;10488499;28;20728;-73
2022/06/18 13:38:46;;;;;;;12.35;2.85;;;;;;;30.52;30.92;99994.44;10492823;28;20041;-74
2022/06/18 13:44:02;;;;;;;13.55;3.97;;;;;;;30.61;31.97;100015.31;10494344;28;20059;-73
2022/06/18 13:49:16;;;;;;;14.65;6.20;;;;;;;30.50;31.57;99980.22;10494495;28;20044;-72
2022/06/18 13:54:17;;;;;;;23.25;6.45;;;;;;;30.68;31.35;100006.63;10488269;28;20052;-72
2022/06/18 13:59:20;;;;;;;17.05;7.78;;;;;;;30.85;30.71;100012.28;10483005;28;20039;-73
2022/06/18 14:04:35;;;;;;;34.97;19.70;;;;;;;29.96;29.74;99854.03;10478758;28;20489;-71
2022/06/18 14:09:53;;;;;;;15.02;7.07;;;;;;;30.76;29.36;100005.09;10484549;28;20385;-73
2022/06/18 14:15:17;;;;;;;14.70;6.30;;;;;;;30.20;29.51;99938.66;10478045;28;20036;-72
2022/06/18 14:20:26;;;;;;;16.20;10.38;;;;;;;29.79;30.00;99920.38;10478941;28;20396;-71
2022/06/18 14:25:28;;;;;;;9.15;3.60;;;;;;;30.10;29.24;99936.16;10478725;28;20513;-73
2022/06/18 14:30:41;;;;;;;10.77;3.03;;;;;;;29.76;28.40;99855.28;10482084;28;20052;-72
2022/06/18 14:35:55;;;;;;;9.25;2.20;;;;;;;29.60;30.18;99919.69;10467366;28;20554;-71
2022/06/18 14:46:42;;;;;;;9.18;2.35;;;;;;;29.78;31.40;100017.34;10484237;28;20067;-73
2022/06/18 14:52:06;;;;;;;13.75;2.33;;;;;;;29.86;31.20;100041.28;10472248;28;20578;-73
2022/06/18 14:57:58;;;;;;;18.42;3.40;;;;;;;29.77;31.77;100051.31;10480573;28;20036;-72
2022/06/18 15:03:11;;;;;;;13.98;2.80;;;;;;;27.91;33.06;99846.00;10443841;28;20047;-72
2022/06/18 15:08:16;;;;;;;39.00;4.45;;;;;;;28.35;33.17;99984.91;10476497;28;20407;-72
2022/06/18 15:13:17;;;;;;;24.98;5.68;;;;;;;28.47;33.20;100035.63;10479851;28;20048;-73
2022/06/18 15:18:40;;;;;;;30.33;13.75;;;;;;;28.42;33.10;100069.28;10467179;28;20101;-73
2022/06/18 15:23:51;;;;;;;29.17;12.73;;;;;;;28.26;33.17;100076.03;10475781;28;20044;-73
2022/06/18 15:28:53;;;;;;;11.05;4.85;;;;;;;28.17;33.04;100070.38;10464982;28;20040;-73
2022/06/18 15:33:54;;;;;;;13.10;2.88;;;;;;;27.46;33.05;99960.06;10473105;28;20595;-73
2022/06/18 15:39:04;;;;;;;12.93;2.53;;;;;;;28.05;32.29;100067.25;10482917;28;20135;-75
2022/06/18 15:44:13;;;;;;;20.88;4.80;;;;;;;28.06;32.98;100074.34;10498067;28;20039;-75
2022/06/18 15:49:26;;;;;;;14.55;3.20;;;;;;;27.71;33.00;100035.41;10498341;28;20518;-75
2022/06/18 15:54:43;;;;;;;16.77;7.28;;;;;;;27.59;33.61;100049.44;10497908;28;20178;-73
2022/06/18 15:59:55;;;;;;;19.75;4.35;;;;;;;27.48;34.14;100065.09;10496532;28;20051;-74
2022/06/18 16:04:58;;;;;;;29.08;6.65;;;;;;;27.07;34.73;100027.25;10497481;28;20119;-74
2022/06/18 16:10:04;;;;;;;16.02;3.28;;;;;;;27.26;34.93;100092.03;10497563;28;20488;-73
2022/06/18 16:15:31;;;;;;;9.70;2.72;;;;;;;27.15;35.31;100082.28;10479656;28;20048;-74
2022/06/18 16:20:32;;;;;;;11.35;3.20;;;;;;;26.89;35.11;100079.69;10488146;28;20048;-74
2022/06/18 16:25:41;;;;;;;37.33;4.85;;;;;;;26.06;35.26;99963.34;10496880;28;20089;-73
2022/06/18 16:30:42;;;;;;;23.92;3.90;;;;;;;26.54;35.26;100050.78;10497606;28;20041;-73
2022/06/18 16:36:04;;;;;;;20.75;3.90;;;;;;;26.78;34.82;100102.69;10496648;28;20040;-73
2022/06/18 16:41:35;;;;;;;12.77;6.43;;;;;;;26.71;34.93;100100.25;10470612;28;20058;-73
2022/06/18 16:46:36;;;;;;;44.38;8.73;;;;;;;26.17;35.52;100036.50;10457104;28;20072;-72
2022/06/18 16:51:48;;;;;;;18.42;7.20;;;;;;;26.61;35.61;100120.19;10495726;28;20123;-73
2022/06/18 16:56:49;;;;;;;37.70;8.38;;;;;;;26.49;36.61;100116.16;10494319;28;20098;-73
2022/06/18 17:01:49;;;;;;;40.65;8.50;;;;;;;26.38;36.94;100129.81;10496991;28;20044;-74
2022/06/18 17:06:52;;;;;;;17.98;4.95;;;;;;;26.11;36.86;100093.94;10495336;28;20052;-73
2022/06/18 17:11:55;;;;;;;14.98;6.72;;;;;;;25.99;37.24;100093.44;10494812;28;20123;-73
2022/06/18 17:16:56;;;;;;;26.25;7.53;;;;;;;26.03;37.29;100108.97;10477509;28;20514;-73
2022/06/18 17:21:57;;;;;;;41.35;7.30;;;;;;;25.20;38.20;100014.13;10471848;28;20037;-73
2022/06/18 17:32:17;;;;;;;21.40;7.45;;;;;;;25.67;40.29;100151.72;10486449;28;20045;-72
2022/06/18 17:37:21;;;;;;;26.33;7.80;;;;;;;25.41;40.45;100131.84;10494051;28;20041;-74
2022/06/18 17:42:23;;;;;;;38.53;9.50;;;;;;;24.83;40.89;100067.63;10491944;28;20037;-72
2022/06/18 17:47:24;;;;;;;30.20;8.65;;;;;;;25.34;41.80;100175.63;10486657;28;20139;-73
2022/06/18 17:52:25;;;;;;;35.83;8.20;;;;;;;24.43;42.83;100054.75;10492941;28;20040;-71
2022/06/18 17:57:26;;;;;;;41.60;9.68;;;;;;;25.12;43.57;100203.00;10494818;28;20090;-70
2022/06/18 18:02:30;;;;;;;32.95;17.13;;;;;;;24.25;44.65;100095.91;10494083;28;20036;-70
2022/06/18 18:07:31;;;;;;;24.88;11.32;;;;;;;24.97;44.47;100219.25;10494072;28;20143;-75
2022/06/18 18:12:32;;;;;;;18.67;6.97;;;;;;;24.69;44.94;100177.06;10493611;28;20049;-81
2022/06/18 18:17:34;;;;;;;26.42;8.40;;;;;;;24.79;45.01;100199.63;10493381;28;20458;-76
2022/06/18 18:22:35;;;;;;;24.58;9.18;;;;;;;24.83;45.31;100216.22;10499595;28;21014;-68
2022/06/18 18:27:36;;;;;;;17.00;8.20;;;;;;;24.59;45.65;100199.56;10497841;28;20048;-72
2022/06/18 18:32:38;;;;;;;13.88;6.70;;;;;;;24.74;44.76;100240.38;10531743;28;20047;-70
2022/06/18 18:37:39;;;;;;;17.70;7.32;;;;;;;23.81;45.46;100093.50;10537021;28;20507;-72
2022/06/18 18:42:40;;;;;;;10.80;3.88;;;;;;;22.86;44.30;99946.97;10541726;28;20040;-76
2022/06/18 18:47:41;;;;;;;9.43;3.83;;;;;;;24.64;44.38;100242.22;10528801;28;20040;-78
2022/06/18 18:52:42;;;;;;;5.32;2.72;;;;;;;24.35;44.44;100205.38;10498068;28;20189;-69
2022/06/18 18:57:43;;;;;;;7.78;2.92;;;;;;;24.37;45.80;100213.25;10497569;28;20043;-74
2022/06/18 19:02:44;;;;;;;12.32;2.78;;;;;;;24.09;46.92;100188.09;10469290;28;20153;-75
2022/06/18 19:13:07;;;;;;;9.45;2.70;;;;;;;24.13;49.12;100219.06;11116918;23;20053;-73
2022/06/18 19:18:11;;;;;;;4.47;2.20;;;;;;;24.07;49.96;100233.66;10385213;28;20106;-73
2022/06/18 19:23:13;;;;;;;6.80;1.95;;;;;;;23.91;49.99;100219.19;10399296;28;20118;-73
2022/06/18 19:28:35;;;;;;;3.90;1.90;;;;;;;24.01;51.06;100236.59;10386549;28;20038;-73
2022/06/18 19:33:36;;;;;;;5.50;2.33;;;;;;;23.84;49.95;100232.16;10362893;28;20052;-71
2022/06/18 19:38:37;;;;;;;9.38;2.20;;;;;;;23.06;49.65;100109.66;10375267;28;20100;-73
2022/06/18 19:43:38;;;;;;;6.60;2.58;;;;;;;22.44;49.85;100023.44;10375693;28;20088;-72
2022/06/18 19:48:42;;;;;;;4.25;2.20;;;;;;;23.72;49.89;100226.06;10375040;28;20034;-72
2022/06/18 19:53:44;;;;;;;11.40;2.33;;;;;;;23.67;50.42;100213.25;10364437;28;20107;-73
2022/06/18 19:58:47;;;;;;;8.10;2.65;;;;;;;23.52;52.20;100199.56;10366430;28;20042;-73
2022/06/18 20:03:49;;;;;;;14.30;3.13;;;;;;;23.52;53.29;100220.44;10373633;28;20038;-74
2022/06/18 20:08:51;;;;;;;7.10;2.50;;;;;;;23.10;53.73;100197.50;10364383;28;20448;-74
2022/06/18 20:13:52;;;;;;;8.00;3.10;;;;;;;22.94;54.34;100184.81;10341718;28;20062;-73
2022/06/18 20:18:53;;;;;;;6.55;2.95;;;;;;;23.21;53.25;100230.94;10334550;28;20042;-73
2022/06/18 20:23:54;;;;;;;9.15;3.25;;;;;;;23.18;52.39;100229.59;10373815;28;20459;-73
2022/06/18 20:28:55;;;;;;;5.82;2.55;;;;;;;23.19;51.51;100228.50;10364479;28;20030;-72
2022/06/18 20:33:56;;;;;;;5.50;2.03;;;;;;;23.23;50.76;100217.97;10330927;28;20568;-72
2022/06/18 20:38:57;;;;;;;4.75;2.03;;;;;;;23.22;50.26;100227.19;10330147;28;20035;-72
2022/06/18 20:44:00;;;;;;;4.05;1.70;;;;;;;22.46;49.79;100110.59;10323740;28;20046;-72
2022/06/18 20:49:01;;;;;;;5.28;1.80;;;;;;;23.26;50.09;100220.16;10318743;28;20046;-73
2022/06/18 20:59:23;;;;;;;4.22;2.13;;;;;;;23.10;51.88;100221.09;10329516;28;20126;-71
2022/06/18 21:04:25;;;;;;;5.55;2.05;;;;;;;21.57;51.61;99989.88;10331110;28;20125;-72
2022/06/18 21:09:25;;;;;;;5.68;2.20;;;;;;;22.69;52.47;100180.75;10324134;28;20049;-72
2022/06/18 21:14:27;;;;;;;11.18;2.60;;;;;;;22.83;53.15;100212.88;10330358;28;20065;-72
2022/06/18 21:19:28;;;;;;;5.95;2.58;;;;;;;22.53;53.53;100193.28;10330988;28;20046;-72
2022/06/18 21:24:33;;;;;;;5.30;2.28;;;;;;;22.52;54.10;100188.09;10332330;28;20038;-72
2022/06/18 21:29:34;;;;;;;9.02;2.78;;;;;;;22.54;53.51;100211.16;10331313;28;20421;-72
2022/06/18 21:39:58;;;;;;;11.27;2.70;;;;;;;21.64;54.17;100085.94;10331111;28;20034;-72
2022/06/18 21:45:00;;;;;;;12.85;1.90;;;;;;;22.30;54.91;100223.25;10331629;28;20042;-72
2022/06/18 21:50:01;;;;;;;4.47;2.03;;;;;;;22.15;54.83;100225.72;10330927;28;20035;-72
2022/06/18 21:55:02;;;;;;;4.80;2.25;;;;;;;21.58;55.85;100167.22;10338726;28;20532;-72
2022/06/18 22:00:15;;;;;;;4.30;2.30;;;;;;;21.89;58.23;100220.69;10339205;28;20042;-72
2022/06/18 22:05:16;;;;;;;5.35;2.22;;;;;;;21.79;57.08;100220.53;10338504;28;20081;-72
2022/06/18 22:10:17;;;;;;;3.38;2.45;;;;;;;21.72;57.88;100209.09;10338125;28;20058;-72
2022/06/18 22:20:38;;;;;;;8.27;2.80;;;;;;;19.93;58.25;99951.97;10338577;28;20049;-72
2022/06/18 22:25:41;;;;;;;4.68;2.47;;;;;;;21.09;58.59;100161.44;10338470;28;20049;-73
2022/06/18 22:30:42;;;;;;;6.03;2.70;;;;;;;21.24;58.14;100177.09;10338682;28;20049;-72
2022/06/18 22:35:43;;;;;;;4.82;2.50;;;;;;;21.24;58.43;100206.81;10338429;28;20049;-72
2022/06/18 22:40:45;;;;;;;5.60;2.50;;;;;;;20.92;59.51;100143.31;10338270;28;20042;-72
2022/06/18 22:45:51;;;;;;;9.05;3.15;;;;;;;21.03;60.09;100190.25;10337399;28;20046;-72
2022/06/18 22:50:53;;;;;;;10.38;2.70;;;;;;;20.94;59.92;100189.81;10336459;28;20050;-72
2022/06/18 22:56:08;;;;;;;19.42;3.80;;;;;;;20.74;61.63;100173.19;10336679;28;20398;-72
2022/06/18 23:01:11;;;;;;;8.68;2.70;;;;;;;20.49;61.76;100193.16;10337082;28;20520;-72
2022/06/18 23:06:17;;;;;;;10.43;3.13;;;;;;;18.87;63.62;99933.16;10336692;28;20409;-72
2022/06/18 23:16:38;;;;;;;5.03;2.60;;;;;;;18.97;64.29;100042.97;10335785;28;20418;-72
2022/06/18 23:21:40;;;;;;;6.43;2.45;;;;;;;19.59;65.52;100185.34;10336440;28;20038;-72
2022/06/18 23:26:40;;;;;;;9.70;2.53;;;;;;;19.34;66.19;100150.50;10336300;28;20042;-72
2022/06/18 23:31:41;;;;;;;5.03;2.50;;;;;;;19.50;66.95;100198.31;10336105;28;20138;-72
2022/06/18 23:36:44;;;;;;;10.05;2.90;;;;;;;19.52;67.23;100207.00;10335671;28;20048;-72
2022/06/18 23:41:44;;;;;;;4.43;2.60;;;;;;;19.52;67.08;100206.19;10334774;28;20730;-72
2022/06/18 23:46:47;;;;;;;6.57;2.67;;;;;;;19.47;67.09;100208.75;10334974;28;20137;-72
2022/06/18 23:51:48;;;;;;;10.25;3.00;;;;;;;19.42;67.44;100193.28;10335425;28;20042;-72
2022/06/18 23:56:49;;;;;;;6.28;3.00;;;;;;;19.42;67.67;100205.94;10335333;28;20445;-72
